sensor_id;sensor_type;location;lat;lon;timestamp;P1;durP1;ratioP1;P2;durP2;ratioP2
9413;SDS011;4746;35.664;139.738;2024-01-11T00:00:16;3.27;;;3.07;;
9413;SDS011;4746;35.664;139.738;2024-01-11T00:02:44;4.20;;;2.90;;
9413;SDS011;4746;35.664;139.738;2024-01-11T00:05:13;3.10;;;2.80;;
9413;SDS011;4746;35.664;139.738;2024-01-11T00:07:41;4.90;;;3.03;;
9413;SDS011;4746;35.664;139.738;2024-01-11T00:10:11;3.70;;;2.87;;
9413;SDS011;4746;35.664;139.738;2024-01-11T00:12:40;4.83;;;2.87;;
9413;SDS011;4746;35.664;139.738;2024-01-11T00:15:08;3.93;;;3.40;;
9413;SDS011;4746;35.664;139.738;2024-01-11T00:17:39;3.53;;;2.60;;
9413;SDS011;4746;35.664;139.738;2024-01-11T00:20:07;4.73;;;2.93;;
9413;SDS011;4746;35.664;139.738;2024-01-11T00:22:36;3.03;;;2.40;;
9413;SDS011;4746;35.664;139.738;2024-01-11T00:25:04;4.63;;;3.10;;
9413;SDS011;4746;35.664;139.738;2024-01-11T00:27:36;8.07;;;2.90;;
9413;SDS011;4746;35.664;139.738;2024-01-11T00:30:04;6.07;;;3.23;;
9413;SDS011;4746;35.664;139.738;2024-01-11T00:32:39;4.77;;;3.13;;
9413;SDS011;4746;35.664;139.738;2024-01-11T00:35:06;3.40;;;3.10;;
9413;SDS011;4746;35.664;139.738;2024-01-11T00:37:34;3.60;;;3.03;;
9413;SDS011;4746;35.664;139.738;2024-01-11T00:40:05;3.87;;;3.07;;
9413;SDS011;4746;35.664;139.738;2024-01-11T00:42:33;3.27;;;3.00;;
9413;SDS011;4746;35.664;139.738;2024-01-11T00:45:04;4.40;;;3.43;;
9413;SDS011;4746;35.664;139.738;2024-01-11T00:47:33;6.13;;;3.27;;
9413;SDS011;4746;35.664;139.738;2024-01-11T00:50:03;4.53;;;2.80;;
9413;SDS011;4746;35.664;139.738;2024-01-11T00:52:32;3.50;;;3.00;;
9413;SDS011;4746;35.664;139.738;2024-01-11T00:55:00;4.20;;;3.27;;
9413;SDS011;4746;35.664;139.738;2024-01-11T00:57:28;5.03;;;3.27;;
9413;SDS011;4746;35.664;139.738;2024-01-11T00:59:56;3.40;;;3.10;;
9413;SDS011;4746;35.664;139.738;2024-01-11T01:02:24;4.70;;;3.07;;
9413;SDS011;4746;35.664;139.738;2024-01-11T01:04:52;8.33;;;3.10;;
9413;SDS011;4746;35.664;139.738;2024-01-11T01:07:20;5.77;;;3.17;;
9413;SDS011;4746;35.664;139.738;2024-01-11T01:09:48;3.33;;;3.03;;
9413;SDS011;4746;35.664;139.738;2024-01-11T01:12:16;5.43;;;3.27;;
9413;SDS011;4746;35.664;139.738;2024-01-11T01:14:43;3.50;;;3.00;;
9413;SDS011;4746;35.664;139.738;2024-01-11T01:17:12;3.57;;;3.27;;
9413;SDS011;4746;35.664;139.738;2024-01-11T01:19:41;5.13;;;3.33;;
9413;SDS011;4746;35.664;139.738;2024-01-11T01:22:10;3.60;;;3.00;;
9413;SDS011;4746;35.664;139.738;2024-01-11T01:24:39;4.30;;;3.00;;
9413;SDS011;4746;35.664;139.738;2024-01-11T01:27:12;3.77;;;3.00;;
9413;SDS011;4746;35.664;139.738;2024-01-11T01:29:40;3.20;;;2.87;;
9413;SDS011;4746;35.664;139.738;2024-01-11T01:32:12;3.67;;;2.60;;
9413;SDS011;4746;35.664;139.738;2024-01-11T01:34:46;3.70;;;3.40;;
9413;SDS011;4746;35.664;139.738;2024-01-11T01:37:14;6.50;;;2.93;;
9413;SDS011;4746;35.664;139.738;2024-01-11T01:39:42;3.30;;;2.87;;
9413;SDS011;4746;35.664;139.738;2024-01-11T01:44:50;3.30;;;3.00;;
9413;SDS011;4746;35.664;139.738;2024-01-11T01:47:18;3.93;;;3.37;;
9413;SDS011;4746;35.664;139.738;2024-01-11T01:49:46;5.07;;;3.03;;
9413;SDS011;4746;35.664;139.738;2024-01-11T01:55:22;3.67;;;2.93;;
9413;SDS011;4746;35.664;139.738;2024-01-11T01:58:12;3.10;;;2.80;;
9413;SDS011;4746;35.664;139.738;2024-01-11T02:00:57;5.07;;;2.77;;
9413;SDS011;4746;35.664;139.738;2024-01-11T02:03:37;3.77;;;2.97;;
9413;SDS011;4746;35.664;139.738;2024-01-11T02:06:11;7.03;;;3.47;;
9413;SDS011;4746;35.664;139.738;2024-01-11T02:08:44;3.60;;;2.73;;
9413;SDS011;4746;35.664;139.738;2024-01-11T02:11:14;4.20;;;3.30;;
9413;SDS011;4746;35.664;139.738;2024-01-11T02:13:42;2.93;;;2.63;;
9413;SDS011;4746;35.664;139.738;2024-01-11T02:16:13;4.27;;;3.00;;
9413;SDS011;4746;35.664;139.738;2024-01-11T02:18:45;4.93;;;3.10;;
9413;SDS011;4746;35.664;139.738;2024-01-11T02:21:14;5.50;;;3.50;;
9413;SDS011;4746;35.664;139.738;2024-01-11T02:23:44;5.00;;;3.20;;
9413;SDS011;4746;35.664;139.738;2024-01-11T02:26:33;4.10;;;3.23;;
9413;SDS011;4746;35.664;139.738;2024-01-11T02:29:06;4.23;;;3.17;;
9413;SDS011;4746;35.664;139.738;2024-01-11T02:31:36;3.70;;;2.67;;
9413;SDS011;4746;35.664;139.738;2024-01-11T02:34:03;5.57;;;2.77;;
9413;SDS011;4746;35.664;139.738;2024-01-11T02:36:31;4.00;;;3.07;;
9413;SDS011;4746;35.664;139.738;2024-01-11T02:39:02;3.23;;;2.77;;
9413;SDS011;4746;35.664;139.738;2024-01-11T02:41:30;4.03;;;2.93;;
9413;SDS011;4746;35.664;139.738;2024-01-11T02:44:02;6.67;;;4.33;;
9413;SDS011;4746;35.664;139.738;2024-01-11T02:46:33;3.60;;;3.20;;
9413;SDS011;4746;35.664;139.738;2024-01-11T02:49:00;6.20;;;2.87;;
9413;SDS011;4746;35.664;139.738;2024-01-11T02:51:28;3.93;;;2.87;;
9413;SDS011;4746;35.664;139.738;2024-01-11T02:53:56;3.47;;;3.17;;
9413;SDS011;4746;35.664;139.738;2024-01-11T02:56:23;4.17;;;3.00;;
9413;SDS011;4746;35.664;139.738;2024-01-11T02:58:55;3.67;;;3.13;;
9413;SDS011;4746;35.664;139.738;2024-01-11T03:01:26;4.07;;;3.07;;
9413;SDS011;4746;35.664;139.738;2024-01-11T03:03:54;4.70;;;3.20;;
9413;SDS011;4746;35.664;139.738;2024-01-11T03:06:23;4.37;;;3.40;;
9413;SDS011;4746;35.664;139.738;2024-01-11T03:08:51;4.73;;;4.23;;
9413;SDS011;4746;35.664;139.738;2024-01-11T03:11:19;5.40;;;3.17;;
9413;SDS011;4746;35.664;139.738;2024-01-11T03:13:47;4.53;;;3.13;;
9413;SDS011;4746;35.664;139.738;2024-01-11T03:16:16;3.83;;;3.13;;
9413;SDS011;4746;35.664;139.738;2024-01-11T03:18:45;3.53;;;2.90;;
9413;SDS011;4746;35.664;139.738;2024-01-11T03:21:13;4.97;;;3.87;;
9413;SDS011;4746;35.664;139.738;2024-01-11T03:23:43;4.60;;;3.97;;
9413;SDS011;4746;35.664;139.738;2024-01-11T03:26:20;4.33;;;3.93;;
9413;SDS011;4746;35.664;139.738;2024-01-11T03:28:53;7.37;;;4.80;;
9413;SDS011;4746;35.664;139.738;2024-01-11T03:31:22;8.87;;;5.93;;
9413;SDS011;4746;35.664;139.738;2024-01-11T03:33:59;5.60;;;4.83;;
9413;SDS011;4746;35.664;139.738;2024-01-11T03:36:28;6.00;;;4.60;;
9413;SDS011;4746;35.664;139.738;2024-01-11T03:38:56;5.77;;;4.83;;
9413;SDS011;4746;35.664;139.738;2024-01-11T03:41:25;6.67;;;4.57;;
9413;SDS011;4746;35.664;139.738;2024-01-11T03:43:52;6.13;;;5.20;;
9413;SDS011;4746;35.664;139.738;2024-01-11T03:46:20;7.07;;;5.17;;
9413;SDS011;4746;35.664;139.738;2024-01-11T03:48:51;5.80;;;4.73;;
9413;SDS011;4746;35.664;139.738;2024-01-11T03:51:23;5.37;;;4.87;;
9413;SDS011;4746;35.664;139.738;2024-01-11T03:53:53;7.37;;;4.77;;
9413;SDS011;4746;35.664;139.738;2024-01-11T03:56:22;7.17;;;5.40;;
9413;SDS011;4746;35.664;139.738;2024-01-11T03:58:50;5.50;;;4.93;;
9413;SDS011;4746;35.664;139.738;2024-01-11T04:01:18;5.17;;;4.30;;
9413;SDS011;4746;35.664;139.738;2024-01-11T04:03:48;6.60;;;5.07;;
9413;SDS011;4746;35.664;139.738;2024-01-11T04:06:21;6.97;;;4.50;;
9413;SDS011;4746;35.664;139.738;2024-01-11T04:08:57;8.10;;;5.27;;
9413;SDS011;4746;35.664;139.738;2024-01-11T04:11:48;6.10;;;5.13;;
9413;SDS011;4746;35.664;139.738;2024-01-11T04:14:16;5.80;;;5.30;;
9413;SDS011;4746;35.664;139.738;2024-01-11T04:16:44;5.20;;;4.47;;
9413;SDS011;4746;35.664;139.738;2024-01-11T04:19:12;4.80;;;3.87;;
9413;SDS011;4746;35.664;139.738;2024-01-11T04:21:42;5.63;;;4.93;;
9413;SDS011;4746;35.664;139.738;2024-01-11T04:24:15;5.37;;;4.90;;
9413;SDS011;4746;35.664;139.738;2024-01-11T04:26:44;5.67;;;4.83;;
9413;SDS011;4746;35.664;139.738;2024-01-11T04:29:12;5.63;;;5.13;;
9413;SDS011;4746;35.664;139.738;2024-01-11T04:31:40;5.00;;;4.50;;
9413;SDS011;4746;35.664;139.738;2024-01-11T04:34:16;5.93;;;5.33;;
9413;SDS011;4746;35.664;139.738;2024-01-11T04:36:47;5.73;;;4.90;;
9413;SDS011;4746;35.664;139.738;2024-01-11T04:39:32;5.67;;;5.17;;
9413;SDS011;4746;35.664;139.738;2024-01-11T04:42:03;7.03;;;5.30;;
9413;SDS011;4746;35.664;139.738;2024-01-11T04:44:30;5.20;;;4.63;;
9413;SDS011;4746;35.664;139.738;2024-01-11T04:46:58;5.70;;;4.57;;
9413;SDS011;4746;35.664;139.738;2024-01-11T04:49:26;5.33;;;4.83;;
9413;SDS011;4746;35.664;139.738;2024-01-11T04:51:53;4.63;;;4.20;;
9413;SDS011;4746;35.664;139.738;2024-01-11T04:54:21;8.27;;;4.90;;
9413;SDS011;4746;35.664;139.738;2024-01-11T04:56:48;4.43;;;4.00;;
9413;SDS011;4746;35.664;139.738;2024-01-11T04:59:26;5.23;;;4.73;;
9413;SDS011;4746;35.664;139.738;2024-01-11T05:01:54;4.90;;;4.50;;
9413;SDS011;4746;35.664;139.738;2024-01-11T05:04:22;5.20;;;4.70;;
9413;SDS011;4746;35.664;139.738;2024-01-11T05:06:50;6.27;;;4.70;;
9413;SDS011;4746;35.664;139.738;2024-01-11T05:09:18;4.50;;;4.07;;
9413;SDS011;4746;35.664;139.738;2024-01-11T05:11:46;4.53;;;4.13;;
9413;SDS011;4746;35.664;139.738;2024-01-11T05:14:22;6.10;;;3.87;;
9413;SDS011;4746;35.664;139.738;2024-01-11T05:16:50;6.17;;;3.87;;
9413;SDS011;4746;35.664;139.738;2024-01-11T05:19:18;4.70;;;4.13;;
9413;SDS011;4746;35.664;139.738;2024-01-11T05:21:45;5.03;;;4.50;;
9413;SDS011;4746;35.664;139.738;2024-01-11T05:24:13;5.73;;;4.20;;
9413;SDS011;4746;35.664;139.738;2024-01-11T05:26:42;5.10;;;4.60;;
9413;SDS011;4746;35.664;139.738;2024-01-11T05:29:09;4.90;;;4.40;;
9413;SDS011;4746;35.664;139.738;2024-01-11T05:31:37;5.90;;;4.50;;
9413;SDS011;4746;35.664;139.738;2024-01-11T05:34:11;5.87;;;4.30;;
9413;SDS011;4746;35.664;139.738;2024-01-11T05:36:41;5.20;;;4.40;;
9413;SDS011;4746;35.664;139.738;2024-01-11T05:39:09;4.77;;;4.27;;
9413;SDS011;4746;35.664;139.738;2024-01-11T05:41:37;8.57;;;4.40;;
9413;SDS011;4746;35.664;139.738;2024-01-11T05:44:04;5.77;;;3.60;;
9413;SDS011;4746;35.664;139.738;2024-01-11T05:46:32;5.97;;;3.90;;
9413;SDS011;4746;35.664;139.738;2024-01-11T05:48:59;5.43;;;3.30;;
9413;SDS011;4746;35.664;139.738;2024-01-11T05:51:29;4.83;;;3.50;;
9413;SDS011;4746;35.664;139.738;2024-01-11T05:53:57;4.37;;;3.50;;
9413;SDS011;4746;35.664;139.738;2024-01-11T05:56:24;4.10;;;3.40;;
9413;SDS011;4746;35.664;139.738;2024-01-11T05:58:52;5.13;;;4.03;;
9413;SDS011;4746;35.664;139.738;2024-01-11T06:01:20;4.40;;;4.00;;
9413;SDS011;4746;35.664;139.738;2024-01-11T06:03:48;5.97;;;4.00;;
9413;SDS011;4746;35.664;139.738;2024-01-11T06:06:16;4.30;;;3.90;;
9413;SDS011;4746;35.664;139.738;2024-01-11T06:08:44;4.57;;;4.03;;
9413;SDS011;4746;35.664;139.738;2024-01-11T06:11:14;4.10;;;3.70;;
9413;SDS011;4746;35.664;139.738;2024-01-11T06:13:43;3.67;;;3.33;;
9413;SDS011;4746;35.664;139.738;2024-01-11T06:16:12;7.17;;;4.07;;
9413;SDS011;4746;35.664;139.738;2024-01-11T06:18:40;4.03;;;3.63;;
9413;SDS011;4746;35.664;139.738;2024-01-11T06:21:08;4.03;;;3.73;;
9413;SDS011;4746;35.664;139.738;2024-01-11T06:23:35;4.23;;;3.57;;
9413;SDS011;4746;35.664;139.738;2024-01-11T06:26:03;4.13;;;3.77;;
9413;SDS011;4746;35.664;139.738;2024-01-11T06:28:31;4.27;;;3.80;;
9413;SDS011;4746;35.664;139.738;2024-01-11T06:30:58;3.87;;;3.47;;
9413;SDS011;4746;35.664;139.738;2024-01-11T06:33:29;5.10;;;4.30;;
9413;SDS011;4746;35.664;139.738;2024-01-11T06:35:58;3.83;;;3.53;;
9413;SDS011;4746;35.664;139.738;2024-01-11T06:38:28;5.97;;;4.00;;
9413;SDS011;4746;35.664;139.738;2024-01-11T06:40:56;4.20;;;3.50;;
9413;SDS011;4746;35.664;139.738;2024-01-11T06:43:25;4.37;;;3.47;;
9413;SDS011;4746;35.664;139.738;2024-01-11T06:46:05;4.33;;;3.77;;
9413;SDS011;4746;35.664;139.738;2024-01-11T06:48:35;3.73;;;3.43;;
9413;SDS011;4746;35.664;139.738;2024-01-11T06:51:06;4.10;;;3.80;;
9413;SDS011;4746;35.664;139.738;2024-01-11T06:53:33;3.93;;;3.60;;
9413;SDS011;4746;35.664;139.738;2024-01-11T06:56:12;3.77;;;3.27;;
9413;SDS011;4746;35.664;139.738;2024-01-11T06:58:46;5.07;;;4.10;;
9413;SDS011;4746;35.664;139.738;2024-01-11T07:01:15;4.40;;;4.00;;
9413;SDS011;4746;35.664;139.738;2024-01-11T07:03:48;3.30;;;3.10;;
9413;SDS011;4746;35.664;139.738;2024-01-11T07:06:16;3.93;;;3.33;;
9413;SDS011;4746;35.664;139.738;2024-01-11T07:08:44;5.23;;;3.20;;
9413;SDS011;4746;35.664;139.738;2024-01-11T07:11:12;6.50;;;3.87;;
9413;SDS011;4746;35.664;139.738;2024-01-11T07:13:40;3.60;;;3.30;;
9413;SDS011;4746;35.664;139.738;2024-01-11T07:16:08;4.17;;;3.57;;
9413;SDS011;4746;35.664;139.738;2024-01-11T07:18:36;4.60;;;3.60;;
9413;SDS011;4746;35.664;139.738;2024-01-11T07:21:03;5.33;;;4.53;;
9413;SDS011;4746;35.664;139.738;2024-01-11T07:23:31;4.30;;;3.90;;
9413;SDS011;4746;35.664;139.738;2024-01-11T07:26:06;4.23;;;3.83;;
9413;SDS011;4746;35.664;139.738;2024-01-11T07:28:34;4.17;;;3.67;;
9413;SDS011;4746;35.664;139.738;2024-01-11T07:31:02;4.33;;;3.70;;
9413;SDS011;4746;35.664;139.738;2024-01-11T07:33:30;4.40;;;4.00;;
9413;SDS011;4746;35.664;139.738;2024-01-11T07:36:05;3.73;;;3.43;;
9413;SDS011;4746;35.664;139.738;2024-01-11T07:38:38;5.13;;;4.03;;
9413;SDS011;4746;35.664;139.738;2024-01-11T07:41:06;5.60;;;3.60;;
9413;SDS011;4746;35.664;139.738;2024-01-11T07:43:37;7.40;;;4.20;;
9413;SDS011;4746;35.664;139.738;2024-01-11T07:46:11;4.40;;;4.00;;
9413;SDS011;4746;35.664;139.738;2024-01-11T07:48:40;4.73;;;3.80;;
9413;SDS011;4746;35.664;139.738;2024-01-11T07:51:07;4.93;;;3.80;;
9413;SDS011;4746;35.664;139.738;2024-01-11T07:53:39;3.63;;;3.33;;
9413;SDS011;4746;35.664;139.738;2024-01-11T07:56:07;5.27;;;3.60;;
9413;SDS011;4746;35.664;139.738;2024-01-11T07:58:35;6.67;;;4.20;;
9413;SDS011;4746;35.664;139.738;2024-01-11T08:01:03;5.07;;;3.60;;
9413;SDS011;4746;35.664;139.738;2024-01-11T08:03:35;4.50;;;3.70;;
9413;SDS011;4746;35.664;139.738;2024-01-11T08:06:02;6.17;;;4.13;;
9413;SDS011;4746;35.664;139.738;2024-01-11T08:08:34;7.63;;;4.03;;
9413;SDS011;4746;35.664;139.738;2024-01-11T08:11:09;6.97;;;3.87;;
9413;SDS011;4746;35.664;139.738;2024-01-11T08:13:37;4.60;;;4.17;;
9413;SDS011;4746;35.664;139.738;2024-01-11T08:16:05;4.73;;;4.27;;
9413;SDS011;4746;35.664;139.738;2024-01-11T08:18:35;3.90;;;3.60;;
9413;SDS011;4746;35.664;139.738;2024-01-11T08:21:03;8.13;;;4.00;;
9413;SDS011;4746;35.664;139.738;2024-01-11T08:23:34;4.53;;;3.77;;
9413;SDS011;4746;35.664;139.738;2024-01-11T08:26:22;4.67;;;3.60;;
9413;SDS011;4746;35.664;139.738;2024-01-11T08:28:54;4.23;;;3.77;;
9413;SDS011;4746;35.664;139.738;2024-01-11T08:31:24;5.97;;;3.87;;
9413;SDS011;4746;35.664;139.738;2024-01-11T08:33:52;4.60;;;3.73;;
9413;SDS011;4746;35.664;139.738;2024-01-11T08:36:20;4.23;;;3.73;;
9413;SDS011;4746;35.664;139.738;2024-01-11T08:38:50;4.77;;;4.10;;
9413;SDS011;4746;35.664;139.738;2024-01-11T08:41:21;5.80;;;4.17;;
9413;SDS011;4746;35.664;139.738;2024-01-11T08:43:49;6.03;;;4.50;;
9413;SDS011;4746;35.664;139.738;2024-01-11T08:46:28;3.83;;;3.37;;
9413;SDS011;4746;35.664;139.738;2024-01-11T08:48:56;6.57;;;4.40;;
9413;SDS011;4746;35.664;139.738;2024-01-11T08:51:24;7.23;;;4.00;;
9413;SDS011;4746;35.664;139.738;2024-01-11T08:53:54;4.97;;;4.17;;
9413;SDS011;4746;35.664;139.738;2024-01-11T08:56:27;4.17;;;3.87;;
9413;SDS011;4746;35.664;139.738;2024-01-11T08:58:55;7.00;;;3.90;;
9413;SDS011;4746;35.664;139.738;2024-01-11T09:01:24;5.57;;;4.17;;
9413;SDS011;4746;35.664;139.738;2024-01-11T09:03:52;4.70;;;4.30;;
9413;SDS011;4746;35.664;139.738;2024-01-11T09:06:19;5.00;;;4.07;;
9413;SDS011;4746;35.664;139.738;2024-01-11T09:08:50;5.20;;;4.27;;
9413;SDS011;4746;35.664;139.738;2024-01-11T09:11:19;4.80;;;4.03;;
9413;SDS011;4746;35.664;139.738;2024-01-11T09:13:52;4.87;;;4.37;;
9413;SDS011;4746;35.664;139.738;2024-01-11T09:16:22;6.27;;;4.23;;
9413;SDS011;4746;35.664;139.738;2024-01-11T09:18:50;5.80;;;4.13;;
9413;SDS011;4746;35.664;139.738;2024-01-11T09:21:18;6.40;;;4.10;;
9413;SDS011;4746;35.664;139.738;2024-01-11T09:23:48;4.00;;;3.67;;
9413;SDS011;4746;35.664;139.738;2024-01-11T09:26:15;4.83;;;4.30;;
9413;SDS011;4746;35.664;139.738;2024-01-11T09:28:44;4.70;;;4.23;;
9413;SDS011;4746;35.664;139.738;2024-01-11T09:31:12;5.17;;;4.57;;
9413;SDS011;4746;35.664;139.738;2024-01-11T09:33:39;5.50;;;4.97;;
9413;SDS011;4746;35.664;139.738;2024-01-11T09:36:13;5.53;;;5.03;;
9413;SDS011;4746;35.664;139.738;2024-01-11T09:38:44;6.40;;;5.30;;
9413;SDS011;4746;35.664;139.738;2024-01-11T09:41:14;6.60;;;5.30;;
9413;SDS011;4746;35.664;139.738;2024-01-11T09:43:42;7.13;;;5.47;;
9413;SDS011;4746;35.664;139.738;2024-01-11T09:46:11;6.87;;;5.47;;
9413;SDS011;4746;35.664;139.738;2024-01-11T09:48:39;5.93;;;5.30;;
9413;SDS011;4746;35.664;139.738;2024-01-11T09:51:11;9.23;;;5.50;;
9413;SDS011;4746;35.664;139.738;2024-01-11T09:53:39;6.50;;;5.70;;
9413;SDS011;4746;35.664;139.738;2024-01-11T09:56:09;6.53;;;5.77;;
9413;SDS011;4746;35.664;139.738;2024-01-11T09:58:38;7.70;;;5.90;;
9413;SDS011;4746;35.664;139.738;2024-01-11T10:01:16;7.53;;;5.63;;
9413;SDS011;4746;35.664;139.738;2024-01-11T10:03:45;6.50;;;5.90;;
9413;SDS011;4746;35.664;139.738;2024-01-11T10:06:22;6.13;;;5.63;;
9413;SDS011;4746;35.664;139.738;2024-01-11T10:08:54;7.40;;;6.70;;
9413;SDS011;4746;35.664;139.738;2024-01-11T10:11:21;7.63;;;6.10;;
9413;SDS011;4746;35.664;139.738;2024-01-11T10:13:59;8.37;;;5.90;;
9413;SDS011;4746;35.664;139.738;2024-01-11T10:16:28;6.10;;;5.50;;
9413;SDS011;4746;35.664;139.738;2024-01-11T10:18:56;7.00;;;6.07;;
9413;SDS011;4746;35.664;139.738;2024-01-11T10:21:29;6.30;;;5.67;;
9413;SDS011;4746;35.664;139.738;2024-01-11T10:23:57;8.33;;;6.33;;
9413;SDS011;4746;35.664;139.738;2024-01-11T10:26:42;6.20;;;5.70;;
9413;SDS011;4746;35.664;139.738;2024-01-11T10:29:10;6.63;;;6.00;;
9413;SDS011;4746;35.664;139.738;2024-01-11T10:31:38;7.60;;;5.97;;
9413;SDS011;4746;35.664;139.738;2024-01-11T10:34:07;8.63;;;6.57;;
9413;SDS011;4746;35.664;139.738;2024-01-11T10:36:34;8.43;;;6.40;;
9413;SDS011;4746;35.664;139.738;2024-01-11T10:39:03;6.30;;;5.70;;
9413;SDS011;4746;35.664;139.738;2024-01-11T10:41:42;7.90;;;7.20;;
9413;SDS011;4746;35.664;139.738;2024-01-11T10:44:40;11.93;;;6.70;;
9413;SDS011;4746;35.664;139.738;2024-01-11T10:47:14;7.60;;;6.80;;
9413;SDS011;4746;35.664;139.738;2024-01-11T10:49:46;6.80;;;6.10;;
9413;SDS011;4746;35.664;139.738;2024-01-11T10:52:20;10.77;;;6.93;;
9413;SDS011;4746;35.664;139.738;2024-01-11T10:55:05;6.93;;;6.17;;
9413;SDS011;4746;35.664;139.738;2024-01-11T10:57:34;6.53;;;5.63;;
9413;SDS011;4746;35.664;139.738;2024-01-11T11:00:04;6.23;;;5.63;;
9413;SDS011;4746;35.664;139.738;2024-01-11T11:02:37;6.70;;;6.00;;
9413;SDS011;4746;35.664;139.738;2024-01-11T11:05:07;6.63;;;5.57;;
9413;SDS011;4746;35.664;139.738;2024-01-11T11:07:39;7.57;;;6.57;;
9413;SDS011;4746;35.664;139.738;2024-01-11T11:10:08;6.80;;;6.10;;
9413;SDS011;4746;35.664;139.738;2024-01-11T11:12:39;6.90;;;6.13;;
9413;SDS011;4746;35.664;139.738;2024-01-11T11:15:12;7.07;;;6.37;;
9413;SDS011;4746;35.664;139.738;2024-01-11T11:17:41;6.63;;;5.90;;
9413;SDS011;4746;35.664;139.738;2024-01-11T11:20:14;8.47;;;6.80;;
9413;SDS011;4746;35.664;139.738;2024-01-11T11:23:28;9.03;;;7.67;;
9413;SDS011;4746;35.664;139.738;2024-01-11T11:25:40;9.67;;;8.63;;
9413;SDS011;4746;35.664;139.738;2024-01-11T11:28:14;8.77;;;7.30;;
9413;SDS011;4746;35.664;139.738;2024-01-11T11:30:44;7.90;;;7.10;;
9413;SDS011;4746;35.664;139.738;2024-01-11T11:33:22;10.13;;;7.60;;
9413;SDS011;4746;35.664;139.738;2024-01-11T11:35:54;9.47;;;8.13;;
9413;SDS011;4746;35.664;139.738;2024-01-11T11:38:26;8.00;;;6.80;;
9413;SDS011;4746;35.664;139.738;2024-01-11T11:40:59;8.70;;;7.07;;
9413;SDS011;4746;35.664;139.738;2024-01-11T11:43:28;8.73;;;7.27;;
9413;SDS011;4746;35.664;139.738;2024-01-11T11:45:59;6.97;;;5.90;;
9413;SDS011;4746;35.664;139.738;2024-01-11T11:51:08;10.77;;;7.47;;
9413;SDS011;4746;35.664;139.738;2024-01-11T11:53:38;7.33;;;6.43;;
9413;SDS011;4746;35.664;139.738;2024-01-11T11:56:08;8.27;;;6.27;;
9413;SDS011;4746;35.664;139.738;2024-01-11T11:58:41;7.53;;;5.93;;
9413;SDS011;4746;35.664;139.738;2024-01-11T12:01:10;5.73;;;5.17;;
9413;SDS011;4746;35.664;139.738;2024-01-11T12:03:43;6.37;;;5.20;;
9413;SDS011;4746;35.664;139.738;2024-01-11T12:06:20;5.60;;;5.07;;
9413;SDS011;4746;35.664;139.738;2024-01-11T12:11:47;5.43;;;4.90;;
9413;SDS011;4746;35.664;139.738;2024-01-11T12:14:18;5.83;;;4.90;;
9413;SDS011;4746;35.664;139.738;2024-01-11T12:16:55;7.97;;;6.17;;
9413;SDS011;4746;35.664;139.738;2024-01-11T12:19:25;7.70;;;5.60;;
9413;SDS011;4746;35.664;139.738;2024-01-11T12:21:56;6.33;;;5.73;;
9413;SDS011;4746;35.664;139.738;2024-01-11T12:24:27;7.83;;;6.67;;
9413;SDS011;4746;35.664;139.738;2024-01-11T12:26:58;7.13;;;6.43;;
9413;SDS011;4746;35.664;139.738;2024-01-11T12:29:31;7.93;;;7.13;;
9413;SDS011;4746;35.664;139.738;2024-01-11T12:31:59;8.90;;;7.23;;
9413;SDS011;4746;35.664;139.738;2024-01-11T12:34:29;9.77;;;8.77;;
9413;SDS011;4746;35.664;139.738;2024-01-11T12:36:58;11.20;;;7.97;;
9413;SDS011;4746;35.664;139.738;2024-01-11T12:39:32;6.70;;;6.00;;
9413;SDS011;4746;35.664;139.738;2024-01-11T12:42:03;6.60;;;6.00;;
9413;SDS011;4746;35.664;139.738;2024-01-11T12:44:33;6.57;;;5.10;;
9413;SDS011;4746;35.664;139.738;2024-01-11T12:47:05;6.03;;;5.47;;
9413;SDS011;4746;35.664;139.738;2024-01-11T12:49:35;5.50;;;5.00;;
9413;SDS011;4746;35.664;139.738;2024-01-11T12:52:04;6.60;;;6.00;;
9413;SDS011;4746;35.664;139.738;2024-01-11T12:54:32;7.00;;;6.30;;
9413;SDS011;4746;35.664;139.738;2024-01-11T12:57:02;6.90;;;6.20;;
9413;SDS011;4746;35.664;139.738;2024-01-11T12:59:33;7.07;;;6.07;;
9413;SDS011;4746;35.664;139.738;2024-01-11T13:02:02;7.40;;;6.50;;
9413;SDS011;4746;35.664;139.738;2024-01-11T13:04:33;10.40;;;8.00;;
9413;SDS011;4746;35.664;139.738;2024-01-11T13:07:03;9.17;;;8.20;;
9413;SDS011;4746;35.664;139.738;2024-01-11T13:09:32;10.60;;;8.30;;
9413;SDS011;4746;35.664;139.738;2024-01-11T13:12:01;8.00;;;7.20;;
9413;SDS011;4746;35.664;139.738;2024-01-11T13:14:30;11.23;;;9.10;;
9413;SDS011;4746;35.664;139.738;2024-01-11T13:16:59;10.40;;;8.63;;
9413;SDS011;4746;35.664;139.738;2024-01-11T13:19:27;9.33;;;8.33;;
9413;SDS011;4746;35.664;139.738;2024-01-11T13:21:55;9.70;;;8.03;;
9413;SDS011;4746;35.664;139.738;2024-01-11T13:24:23;8.77;;;7.60;;
9413;SDS011;4746;35.664;139.738;2024-01-11T13:26:55;7.17;;;5.90;;
9413;SDS011;4746;35.664;139.738;2024-01-11T13:29:23;7.13;;;5.40;;
9413;SDS011;4746;35.664;139.738;2024-01-11T13:32:07;6.23;;;5.33;;
9413;SDS011;4746;35.664;139.738;2024-01-11T13:34:36;6.47;;;5.87;;
9413;SDS011;4746;35.664;139.738;2024-01-11T13:37:05;6.50;;;5.80;;
9413;SDS011;4746;35.664;139.738;2024-01-11T13:39:40;5.63;;;5.03;;
9413;SDS011;4746;35.664;139.738;2024-01-11T13:42:08;6.70;;;6.20;;
9413;SDS011;4746;35.664;139.738;2024-01-11T13:44:37;9.47;;;7.03;;
9413;SDS011;4746;35.664;139.738;2024-01-11T13:47:06;9.93;;;8.07;;
9413;SDS011;4746;35.664;139.738;2024-01-11T13:49:34;9.33;;;7.63;;
9413;SDS011;4746;35.664;139.738;2024-01-11T13:52:05;7.43;;;6.67;;
9413;SDS011;4746;35.664;139.738;2024-01-11T13:54:37;11.50;;;7.67;;
9413;SDS011;4746;35.664;139.738;2024-01-11T13:57:05;9.80;;;8.17;;
9413;SDS011;4746;35.664;139.738;2024-01-11T13:59:33;8.83;;;7.77;;
9413;SDS011;4746;35.664;139.738;2024-01-11T14:02:02;10.13;;;8.63;;
9413;SDS011;4746;35.664;139.738;2024-01-11T14:04:31;10.23;;;9.20;;
9413;SDS011;4746;35.664;139.738;2024-01-11T14:07:02;10.13;;;8.80;;
9413;SDS011;4746;35.664;139.738;2024-01-11T14:09:30;11.03;;;8.93;;
9413;SDS011;4746;35.664;139.738;2024-01-11T14:12:08;9.23;;;8.27;;
9413;SDS011;4746;35.664;139.738;2024-01-11T14:14:36;9.90;;;8.27;;
9413;SDS011;4746;35.664;139.738;2024-01-11T14:17:25;8.30;;;5.87;;
9413;SDS011;4746;35.664;139.738;2024-01-11T14:19:54;8.77;;;6.00;;
9413;SDS011;4746;35.664;139.738;2024-01-11T14:22:23;6.33;;;5.37;;
9413;SDS011;4746;35.664;139.738;2024-01-11T14:24:51;8.73;;;6.90;;
9413;SDS011;4746;35.664;139.738;2024-01-11T14:27:20;8.93;;;5.90;;
9413;SDS011;4746;35.664;139.738;2024-01-11T14:29:54;6.73;;;5.70;;
9413;SDS011;4746;35.664;139.738;2024-01-11T14:32:22;6.63;;;5.93;;
9413;SDS011;4746;35.664;139.738;2024-01-11T14:34:52;6.50;;;5.87;;
9413;SDS011;4746;35.664;139.738;2024-01-11T14:37:22;12.47;;;5.83;;
9413;SDS011;4746;35.664;139.738;2024-01-11T14:39:50;7.63;;;5.23;;
9413;SDS011;4746;35.664;139.738;2024-01-11T14:42:19;7.10;;;6.40;;
9413;SDS011;4746;35.664;139.738;2024-01-11T14:44:48;6.80;;;6.20;;
9413;SDS011;4746;35.664;139.738;2024-01-11T14:47:28;7.43;;;6.63;;
9413;SDS011;4746;35.664;139.738;2024-01-11T14:50:03;8.10;;;6.17;;
9413;SDS011;4746;35.664;139.738;2024-01-11T14:52:37;7.73;;;5.37;;
9413;SDS011;4746;35.664;139.738;2024-01-11T14:55:06;6.87;;;6.17;;
9413;SDS011;4746;35.664;139.738;2024-01-11T14:57:41;6.40;;;5.60;;
9413;SDS011;4746;35.664;139.738;2024-01-11T15:00:15;6.63;;;5.87;;
9413;SDS011;4746;35.664;139.738;2024-01-11T15:02:49;6.70;;;5.90;;
9413;SDS011;4746;35.664;139.738;2024-01-11T15:05:25;6.93;;;5.83;;
9413;SDS011;4746;35.664;139.738;2024-01-11T15:07:53;6.70;;;5.63;;
9413;SDS011;4746;35.664;139.738;2024-01-11T15:10:22;8.43;;;6.00;;
9413;SDS011;4746;35.664;139.738;2024-01-11T15:12:51;5.40;;;4.90;;
9413;SDS011;4746;35.664;139.738;2024-01-11T15:15:19;6.53;;;5.93;;
9413;SDS011;4746;35.664;139.738;2024-01-11T15:17:48;8.07;;;5.93;;